createdAt,value
2023-05-06T00:01:16.715Z,100534.09
2023-05-06T00:03:47.777Z,100526.75
2023-05-06T00:06:17.761Z,100536.00
2023-05-06T00:08:46.682Z,100531.81
2023-05-06T00:11:15.027Z,100532.16
2023-05-06T00:13:43.634Z,100526.97
2023-05-06T00:16:11.651Z,100527.16
2023-05-06T00:18:39.719Z,100520.81
2023-05-06T00:21:08.305Z,100522.63
2023-05-06T00:23:38.329Z,100512.97
2023-05-06T00:26:06.945Z,100517.94
2023-05-06T00:28:35.154Z,100505.47
2023-05-06T00:31:03.414Z,100515.59
2023-05-06T00:33:31.327Z,100522.06
2023-05-06T00:36:00.421Z,100527.00
2023-05-06T00:38:28.475Z,100518.00
2023-05-06T00:40:58.450Z,100526.50
2023-05-06T00:43:26.665Z,100521.50
2023-05-06T00:45:55.841Z,100527.31
2023-05-06T00:48:24.089Z,100529.50
2023-05-06T00:50:52.454Z,100527.44
2023-05-06T00:53:22.639Z,100527.91
2023-05-06T00:55:51.699Z,100532.03
2023-05-06T00:58:22.467Z,100535.97
2023-05-06T01:00:52.204Z,100536.13
2023-05-06T01:03:20.832Z,100536.78
2023-05-06T01:06:01.072Z,100541.56
2023-05-06T01:08:36.301Z,100535.84
2023-05-06T01:11:11.098Z,100540.66
2023-05-06T01:13:48.473Z,100540.94
2023-05-06T01:16:21.497Z,100540.59
2023-05-06T01:18:51.243Z,100537.53
2023-05-06T01:21:20.353Z,100542.78
2023-05-06T01:23:58.484Z,100547.84
2023-05-06T01:26:29.081Z,100546.50
2023-05-06T01:28:58.832Z,100553.53
2023-05-06T01:31:39.072Z,100546.75
2023-05-06T01:34:15.511Z,100544.50
2023-05-06T01:36:54.867Z,100541.19
2023-05-06T01:39:27.168Z,100545.81
2023-05-06T01:41:59.249Z,100546.94
2023-05-06T01:44:29.913Z,100540.56
2023-05-06T01:46:58.850Z,100550.63
2023-05-06T01:49:28.729Z,100553.06
2023-05-06T01:51:58.018Z,100549.00
2023-05-06T01:54:27.494Z,100550.59
2023-05-06T01:56:55.927Z,100558.16
2023-05-06T01:59:24.339Z,100556.78
2023-05-06T02:01:53.233Z,100552.47
2023-05-06T02:04:21.413Z,100558.72
2023-05-06T02:06:49.455Z,100559.88
2023-05-06T02:09:19.046Z,100554.72
2023-05-06T02:11:54.722Z,100560.03
2023-05-06T02:14:22.772Z,100560.34
2023-05-06T02:16:51.683Z,100560.91
2023-05-06T02:19:19.843Z,100565.53
2023-05-06T02:21:47.998Z,100561.63
2023-05-06T02:24:15.763Z,100564.59
2023-05-06T02:26:44.159Z,100562.91
2023-05-06T02:29:13.788Z,100567.50
2023-05-06T02:31:42.590Z,100568.91
2023-05-06T02:34:11.008Z,100563.19
2023-05-06T02:36:40.047Z,100562.66
2023-05-06T02:39:08.203Z,100570.91
2023-05-06T02:41:36.663Z,100572.88
2023-05-06T02:44:05.162Z,100574.97
2023-05-06T02:46:34.876Z,100578.44
2023-05-06T02:49:03.191Z,100575.22
2023-05-06T02:51:31.309Z,100572.00
2023-05-06T02:53:59.279Z,100576.75
2023-05-06T02:56:29.714Z,100574.25
2023-05-06T02:58:57.868Z,100576.91
2023-05-06T03:01:25.948Z,100571.06
2023-05-06T03:03:55.422Z,100569.94
2023-05-06T03:06:23.259Z,100573.56
2023-05-06T03:08:54.017Z,100578.72
2023-05-06T03:11:22.257Z,100577.03
2023-05-06T03:13:51.333Z,100576.91
2023-05-06T03:16:19.708Z,100580.66
2023-05-06T03:18:52.427Z,100583.19
2023-05-06T03:21:22.179Z,100571.91
2023-05-06T03:23:51.506Z,100584.28
2023-05-06T03:26:22.460Z,100584.72
2023-05-06T03:28:50.473Z,100587.50
2023-05-06T03:31:21.237Z,100594.19
2023-05-06T03:33:49.706Z,100596.41
2023-05-06T03:36:18.580Z,100585.25
2023-05-06T03:38:50.423Z,100587.22
2023-05-06T03:41:19.055Z,100585.81
2023-05-06T03:43:47.282Z,100586.66
2023-05-06T03:46:17.748Z,100589.44
2023-05-06T03:48:46.625Z,100590.53
2023-05-06T03:51:18.069Z,100590.81
2023-05-06T03:53:46.379Z,100592.06
2023-05-06T03:56:18.143Z,100595.81
2023-05-06T03:58:48.605Z,100595.97
2023-05-06T04:01:18.136Z,100601.53
2023-05-06T04:03:46.147Z,100593.59
2023-05-06T04:06:16.873Z,100602.25
2023-05-06T04:08:45.327Z,100594.16
2023-05-06T04:11:13.321Z,100595.00
2023-05-06T04:13:43.336Z,100600.00
2023-05-06T04:16:15.764Z,100596.25
2023-05-06T04:18:46.169Z,100596.94
2023-05-06T04:21:16.584Z,100590.69
2023-05-06T04:23:49.569Z,100602.97
2023-05-06T04:26:22.206Z,100602.81
2023-05-06T04:28:53.799Z,100601.13
2023-05-06T04:31:25.701Z,100598.47
2023-05-06T04:33:53.935Z,100598.63
2023-05-06T04:36:24.897Z,100605.44
2023-05-06T04:39:19.302Z,100603.66
2023-05-06T04:41:49.495Z,100605.44
2023-05-06T04:44:24.911Z,100610.75
2023-05-06T04:46:54.129Z,100611.47
2023-05-06T04:49:22.176Z,100615.09
2023-05-06T04:51:50.482Z,100613.13
2023-05-06T04:54:21.288Z,100617.44
2023-05-06T04:56:49.433Z,100618.00
2023-05-06T04:59:20.074Z,100616.06
2023-05-06T05:01:51.403Z,100621.22
2023-05-06T05:04:19.633Z,100621.09
2023-05-06T05:06:48.249Z,100630.84
2023-05-06T05:09:17.161Z,100631.53
2023-05-06T05:11:47.416Z,100631.28
2023-05-06T05:14:15.648Z,100637.13
2023-05-06T05:16:44.915Z,100632.28
2023-05-06T05:19:14.801Z,100640.78
2023-05-06T05:21:43.257Z,100636.03
2023-05-06T05:24:12.644Z,100641.91
2023-05-06T05:26:40.682Z,100644.69
2023-05-06T05:29:10.077Z,100643.00
2023-05-06T05:31:42.429Z,100643.41
2023-05-06T05:34:11.022Z,100641.31
2023-05-06T05:36:40.433Z,100640.09
2023-05-06T05:39:12.550Z,100646.19
2023-05-06T05:41:48.604Z,100658.38
2023-05-06T05:44:17.505Z,100649.44
2023-05-06T05:46:46.105Z,100649.75
2023-05-06T05:49:18.179Z,100647.22
2023-05-06T05:51:47.746Z,100657.94
2023-05-06T05:54:18.963Z,100664.66
2023-05-06T05:56:48.695Z,100663.50
2023-05-06T05:59:17.491Z,100662.81
2023-05-06T06:01:49.743Z,100658.38
2023-05-06T06:04:21.240Z,100661.41
2023-05-06T06:06:51.224Z,100663.78
2023-05-06T06:09:20.212Z,100655.78
2023-05-06T06:11:52.320Z,100656.88
2023-05-06T06:14:21.435Z,100654.50
2023-05-06T06:16:52.621Z,100658.41
2023-05-06T06:19:21.823Z,100661.31
2023-05-06T06:21:52.079Z,100664.91
2023-05-06T06:24:22.157Z,100661.69
2023-05-06T06:26:53.254Z,100660.09
2023-05-06T06:29:21.784Z,100657.19
2023-05-06T06:31:49.934Z,100661.06
2023-05-06T06:34:19.416Z,100657.56
2023-05-06T06:36:47.262Z,100668.25
2023-05-06T06:39:16.626Z,100675.97
2023-05-06T06:41:45.520Z,100674.44
2023-05-06T06:44:14.450Z,100681.19
2023-05-06T06:46:43.138Z,100679.47
2023-05-06T06:49:11.137Z,100679.44
2023-05-06T06:51:42.410Z,100675.19
2023-05-06T06:54:11.503Z,100674.19
2023-05-06T06:56:41.340Z,100663.81
2023-05-06T06:59:10.766Z,100668.03
2023-05-06T07:01:43.280Z,100673.16
2023-05-06T07:04:16.810Z,100663.25
2023-05-06T07:06:48.701Z,100661.66
2023-05-06T07:09:16.821Z,100669.03
2023-05-06T07:11:46.571Z,100659.66
2023-05-06T07:14:16.575Z,100660.88
2023-05-06T07:16:47.173Z,100670.66
2023-05-06T07:19:21.528Z,100672.72
2023-05-06T07:21:54.899Z,100668.97
2023-05-06T07:24:26.059Z,100668.72
2023-05-06T07:26:59.147Z,100663.13
2023-05-06T07:29:27.579Z,100665.06
2023-05-06T07:31:57.488Z,100668.09
2023-05-06T07:34:25.821Z,100667.63
2023-05-06T07:36:54.287Z,100666.69
2023-05-06T07:39:24.760Z,100668.28
2023-05-06T07:41:53.355Z,100664.34
2023-05-06T07:44:24.156Z,100667.84
2023-05-06T07:46:55.162Z,100665.69
2023-05-06T07:49:28.809Z,100667.06
2023-05-06T07:51:59.342Z,100666.91
2023-05-06T07:54:31.526Z,100672.56
2023-05-06T07:57:01.243Z,100675.75
2023-05-06T07:59:31.301Z,100676.94
2023-05-06T08:02:00.597Z,100682.31
2023-05-06T08:04:32.326Z,100681.19
2023-05-06T08:07:06.552Z,100678.53
2023-05-06T08:09:36.939Z,100683.84
2023-05-06T08:12:11.131Z,100688.53
2023-05-06T08:14:42.095Z,100681.41
2023-05-06T08:17:14.920Z,100683.94
2023-05-06T08:19:47.044Z,100680.75
2023-05-06T08:22:19.223Z,100680.22
2023-05-06T08:24:48.682Z,100686.34
2023-05-06T08:27:16.862Z,100686.84
2023-05-06T08:29:46.800Z,100690.63
2023-05-06T08:32:18.097Z,100683.84
2023-05-06T08:34:46.050Z,100690.13
2023-05-06T08:37:14.482Z,100685.75
2023-05-06T08:39:43.194Z,100696.03
2023-05-06T08:42:12.916Z,100690.66
2023-05-06T08:44:44.597Z,100690.75
2023-05-06T08:47:16.456Z,100692.56
2023-05-06T08:49:44.431Z,100687.69
2023-05-06T08:52:13.079Z,100688.88
2023-05-06T08:54:42.153Z,100686.19
2023-05-06T08:57:13.251Z,100689.34
2023-05-06T08:59:42.849Z,100688.16
2023-05-06T09:02:14.407Z,100696.84
2023-05-06T09:04:44.069Z,100686.44
2023-05-06T09:07:13.175Z,100684.03
2023-05-06T09:09:41.183Z,100682.66
2023-05-06T09:12:13.785Z,100679.91
2023-05-06T09:14:43.267Z,100674.78
2023-05-06T09:17:24.601Z,100678.03
2023-05-06T09:20:00.338Z,100682.31
2023-05-06T09:22:30.031Z,100681.25
2023-05-06T09:24:59.235Z,100674.75
2023-05-06T09:27:31.489Z,100671.91
2023-05-06T09:30:08.850Z,100663.75
2023-05-06T09:32:39.997Z,100661.38
2023-05-06T09:35:11.783Z,100662.31
2023-05-06T09:37:40.621Z,100668.88
2023-05-06T09:40:14.198Z,100666.72
2023-05-06T09:42:44.928Z,100667.28
2023-05-06T09:45:19.355Z,100655.91
2023-05-06T09:47:49.533Z,100653.31
2023-05-06T09:50:19.888Z,100659.47
2023-05-06T09:52:49.861Z,100654.25
2023-05-06T09:55:22.043Z,100655.63
2023-05-06T09:57:51.262Z,100654.69
2023-05-06T10:00:26.787Z,100653.66
2023-05-06T10:03:00.300Z,100645.59
2023-05-06T10:05:31.170Z,100646.03
2023-05-06T10:08:00.534Z,100638.13
2023-05-06T10:10:32.292Z,100644.06
2023-05-06T10:13:03.884Z,100635.31
2023-05-06T10:15:34.096Z,100638.69
2023-05-06T10:18:08.835Z,100642.66
2023-05-06T10:20:42.532Z,100639.66
2023-05-06T10:23:20.613Z,100648.03
2023-05-06T10:25:52.870Z,100640.22
2023-05-06T10:28:31.590Z,100640.16
2023-05-06T10:31:11.812Z,100635.81
2023-05-06T10:33:42.358Z,100627.38
2023-05-06T10:36:20.115Z,100626.81
2023-05-06T10:38:55.936Z,100620.53
2023-05-06T10:41:27.742Z,100621.56
2023-05-06T10:44:03.078Z,100616.34
2023-05-06T10:46:32.738Z,100616.47
2023-05-06T10:49:20.855Z,100609.81
2023-05-06T10:52:14.654Z,100611.84
2023-05-06T10:54:51.393Z,100606.84
2023-05-06T10:57:21.748Z,100601.34
2023-05-06T10:59:52.218Z,100601.38
2023-05-06T11:02:22.075Z,100602.66
2023-05-06T11:04:53.239Z,100597.47
2023-05-06T11:07:27.899Z,100596.94
2023-05-06T11:10:00.053Z,100589.09
2023-05-06T11:12:49.916Z,100582.88
2023-05-06T11:15:22.813Z,100581.00
2023-05-06T11:17:52.560Z,100584.34
2023-05-06T11:20:25.578Z,100589.72
2023-05-06T11:22:55.866Z,100580.41
2023-05-06T11:25:48.492Z,100584.97
2023-05-06T11:28:16.772Z,100577.28
2023-05-06T11:30:55.054Z,100577.69
2023-05-06T11:33:26.365Z,100576.06
2023-05-06T11:35:54.799Z,100579.38
2023-05-06T11:38:25.741Z,100568.19
2023-05-06T11:40:54.124Z,100574.59
2023-05-06T11:43:22.073Z,100568.38
2023-05-06T11:45:50.611Z,100561.34
2023-05-06T11:48:23.012Z,100568.38
2023-05-06T11:50:52.202Z,100561.97
2023-05-06T11:53:26.004Z,100564.66
2023-05-06T11:55:57.359Z,100570.28
2023-05-06T11:58:31.771Z,100572.13
2023-05-06T12:01:04.541Z,100566.94
2023-05-06T12:03:36.187Z,100563.00
2023-05-06T12:06:05.942Z,100566.09
2023-05-06T12:08:42.002Z,100575.00
2023-05-06T12:11:11.436Z,100570.03
2023-05-06T12:13:42.683Z,100560.09
2023-05-06T12:16:15.912Z,100563.97
2023-05-06T12:18:46.440Z,100560.78
2023-05-06T12:21:14.986Z,100562.81
2023-05-06T12:23:53.931Z,100561.31
2023-05-06T12:26:22.325Z,100558.44
2023-05-06T12:29:08.541Z,100560.56
2023-05-06T12:31:36.647Z,100553.75
2023-05-06T12:34:07.914Z,100564.72
2023-05-06T12:36:44.087Z,100560.00
2023-05-06T12:39:15.273Z,100564.44
2023-05-06T12:41:54.077Z,100556.34
2023-05-06T12:44:41.632Z,100563.81
2023-05-06T12:47:24.167Z,100563.00
2023-05-06T12:49:54.381Z,100564.84
2023-05-06T12:52:31.007Z,100558.44
2023-05-06T12:55:03.041Z,100555.94
2023-05-06T12:57:31.045Z,100560.91
2023-05-06T13:00:01.385Z,100552.44
2023-05-06T13:02:37.889Z,100563.00
2023-05-06T13:05:08.180Z,100555.75
2023-05-06T13:07:36.069Z,100557.19
2023-05-06T13:10:07.260Z,100554.91
2023-05-06T13:12:35.533Z,100545.56
2023-05-06T13:15:08.876Z,100547.44
2023-05-06T13:17:37.881Z,100549.50
2023-05-06T13:20:08.596Z,100541.84
2023-05-06T13:22:53.230Z,100550.13
2023-05-06T13:25:24.753Z,100543.53
2023-05-06T13:27:54.928Z,100542.69
2023-05-06T13:30:24.378Z,100539.16
2023-05-06T13:32:53.822Z,100536.44
2023-05-06T13:35:24.271Z,100533.31
2023-05-06T13:37:57.727Z,100516.06
2023-05-06T13:40:27.777Z,100522.59
2023-05-06T13:42:58.406Z,100517.56
2023-05-06T13:45:26.960Z,100522.94
2023-05-06T13:47:58.071Z,100519.81
2023-05-06T13:50:27.234Z,100520.09
2023-05-06T13:52:55.681Z,100512.31
2023-05-06T13:55:24.005Z,100506.66
2023-05-06T13:57:53.635Z,100510.50
2023-05-06T14:00:22.388Z,100514.47
2023-05-06T14:02:51.808Z,100506.38
2023-05-06T14:05:20.787Z,100505.78
2023-05-06T14:07:50.078Z,100502.31
2023-05-06T14:10:23.576Z,100501.38
2023-05-06T14:12:53.424Z,100492.13
2023-05-06T14:15:23.765Z,100494.13
2023-05-06T14:17:52.154Z,100485.91
2023-05-06T14:20:24.208Z,100488.16
2023-05-06T14:22:52.650Z,100488.94
2023-05-06T14:25:26.661Z,100490.03
2023-05-06T14:27:56.569Z,100483.66
2023-05-06T14:30:26.012Z,100482.03
2023-05-06T14:32:56.703Z,100477.69
2023-05-06T14:35:24.988Z,100477.09
2023-05-06T14:37:56.865Z,100478.09
2023-05-06T14:40:27.049Z,100477.19
2023-05-06T14:42:58.845Z,100473.63
2023-05-06T14:45:27.520Z,100462.75
2023-05-06T14:47:56.629Z,100461.91
2023-05-06T14:50:25.083Z,100454.25
2023-05-06T14:52:53.178Z,100464.06
2023-05-06T14:55:21.240Z,100455.56
2023-05-06T14:57:52.081Z,100457.25
2023-05-06T15:00:30.881Z,100459.97
2023-05-06T15:02:59.334Z,100456.72
2023-05-06T15:05:28.320Z,100453.44
2023-05-06T15:07:57.637Z,100455.16
2023-05-06T15:10:28.984Z,100457.44
2023-05-06T15:12:57.227Z,100456.81
2023-05-06T15:15:30.081Z,100463.88
2023-05-06T15:17:58.577Z,100455.00
2023-05-06T15:20:29.921Z,100459.97
2023-05-06T15:22:59.605Z,100461.44
2023-05-06T15:25:35.560Z,100466.84
2023-05-06T15:28:03.954Z,100461.88
2023-05-06T15:30:33.924Z,100462.13
2023-05-06T15:33:03.297Z,100462.13
2023-05-06T15:35:36.248Z,100463.72
2023-05-06T15:38:05.458Z,100459.59
2023-05-06T15:40:33.653Z,100463.94
2023-05-06T15:43:06.051Z,100462.47
2023-05-06T15:45:41.521Z,100465.53
2023-05-06T15:48:12.649Z,100461.78
2023-05-06T15:50:40.955Z,100471.63
2023-05-06T15:53:09.922Z,100465.19
2023-05-06T15:55:46.697Z,100468.91
2023-05-06T15:58:22.499Z,100472.38
2023-05-06T16:00:51.857Z,100473.00
2023-05-06T16:03:23.108Z,100470.25
2023-05-06T16:05:54.529Z,100475.97
2023-05-06T16:08:26.037Z,100474.75
2023-05-06T16:10:55.225Z,100476.16
2023-05-06T16:13:26.706Z,100474.91
2023-05-06T16:15:56.498Z,100476.50
2023-05-06T16:18:24.586Z,100480.00
2023-05-06T16:20:57.576Z,100476.63
2023-05-06T16:23:27.435Z,100481.78
2023-05-06T16:25:57.583Z,100469.75
2023-05-06T16:28:33.534Z,100468.69
2023-05-06T16:31:04.938Z,100477.78
2023-05-06T16:33:33.493Z,100477.56
2023-05-06T16:36:10.547Z,100475.09
2023-05-06T16:38:42.974Z,100464.09
2023-05-06T16:41:17.544Z,100467.41
2023-05-06T16:43:48.407Z,100464.44
2023-05-06T16:46:22.755Z,100459.81
2023-05-06T16:48:59.329Z,100462.66
2023-05-06T16:51:29.555Z,100461.19
2023-05-06T16:53:57.693Z,100461.69
2023-05-06T16:56:36.679Z,100459.59
2023-05-06T16:59:09.065Z,100451.94
2023-05-06T17:01:38.594Z,100452.03
2023-05-06T17:04:08.209Z,100450.56
2023-05-06T17:06:37.747Z,100451.97
2023-05-06T17:09:07.297Z,100453.53
2023-05-06T17:11:37.724Z,100449.94
2023-05-06T17:14:06.108Z,100450.13
2023-05-06T17:16:34.493Z,100453.00
2023-05-06T17:19:19.380Z,100450.88
2023-05-06T17:21:51.742Z,100450.81
2023-05-06T17:24:20.624Z,100445.81
2023-05-06T17:26:50.099Z,100448.63
2023-05-06T17:29:18.441Z,100449.38
2023-05-06T17:31:48.670Z,100441.72
2023-05-06T17:34:18.552Z,100441.28
2023-05-06T17:36:54.584Z,100441.44
2023-05-06T17:39:23.810Z,100440.63
2023-05-06T17:41:55.341Z,100448.84
2023-05-06T17:44:23.318Z,100445.72
2023-05-06T17:46:56.392Z,100438.50
2023-05-06T17:49:26.449Z,100444.06
2023-05-06T17:51:56.537Z,100447.78
2023-05-06T17:54:31.795Z,100440.06
2023-05-06T17:57:03.327Z,100435.91
2023-05-06T17:59:39.361Z,100441.47
2023-05-06T18:02:12.836Z,100441.66
2023-05-06T18:04:47.323Z,100447.19
2023-05-06T18:07:18.426Z,100444.88
2023-05-06T18:09:52.045Z,100454.13
2023-05-06T18:12:24.033Z,100453.50
2023-05-06T18:14:56.894Z,100458.19
2023-05-06T18:17:27.948Z,100454.22
2023-05-06T18:19:57.651Z,100457.25
2023-05-06T18:22:28.976Z,100456.81
2023-05-06T18:24:57.184Z,100458.38
2023-05-06T18:27:26.153Z,100463.28
2023-05-06T18:29:56.046Z,100467.34
2023-05-06T18:32:24.248Z,100470.56
2023-05-06T18:34:58.846Z,100473.44
2023-05-06T18:37:35.968Z,100470.31
2023-05-06T18:40:09.159Z,100465.50
2023-05-06T18:42:38.524Z,100462.38
2023-05-06T18:45:08.977Z,100466.25
2023-05-06T18:47:40.022Z,100470.28
2023-05-06T18:50:10.057Z,100470.84
2023-05-06T18:52:42.023Z,100471.38
2023-05-06T18:55:13.760Z,100475.06
2023-05-06T18:57:42.181Z,100470.91
2023-05-06T19:00:13.578Z,100471.25
2023-05-06T19:02:42.847Z,100471.47
2023-05-06T19:05:12.664Z,100472.78
2023-05-06T19:07:42.778Z,100477.50
2023-05-06T19:10:13.835Z,100476.41
2023-05-06T19:12:43.542Z,100478.94
2023-05-06T19:15:13.984Z,100478.47
2023-05-06T19:17:42.099Z,100481.69
2023-05-06T19:20:14.306Z,100487.59
2023-05-06T19:22:45.057Z,100486.94
2023-05-06T19:25:13.203Z,100490.97
2023-05-06T19:27:44.334Z,100496.69
2023-05-06T19:30:13.496Z,100492.69
2023-05-06T19:32:44.527Z,100500.25
2023-05-06T19:35:13.195Z,100494.59
2023-05-06T19:37:41.969Z,100498.47
2023-05-06T19:40:12.016Z,100504.16
2023-05-06T19:42:41.687Z,100498.50
2023-05-06T19:45:10.751Z,100508.53
2023-05-06T19:47:41.179Z,100505.97
2023-05-06T19:50:10.707Z,100507.53
2023-05-06T19:52:40.508Z,100513.25
2023-05-06T19:55:10.917Z,100517.94
2023-05-06T19:57:46.434Z,100526.28
2023-05-06T20:00:18.302Z,100519.44
2023-05-06T20:02:47.187Z,100525.97
2023-05-06T20:05:15.845Z,100528.00
2023-05-06T20:07:46.597Z,100522.53
2023-05-06T20:10:20.809Z,100521.19
2023-05-06T20:12:50.819Z,100524.06
2023-05-06T20:15:22.127Z,100526.88
2023-05-06T20:17:50.353Z,100522.06
2023-05-06T20:20:19.441Z,100527.41
2023-05-06T20:22:47.629Z,100524.25
2023-05-06T20:25:17.517Z,100525.59
2023-05-06T20:27:46.473Z,100523.09
2023-05-06T20:30:18.660Z,100517.75
2023-05-06T20:32:52.184Z,100522.59
2023-05-06T20:35:22.282Z,100523.63
2023-05-06T20:37:50.431Z,100522.97
2023-05-06T20:40:19.747Z,100529.31
2023-05-06T20:42:50.181Z,100521.31
2023-05-06T20:45:25.321Z,100519.66
2023-05-06T20:47:56.009Z,100516.28
2023-05-06T20:50:24.561Z,100512.97
2023-05-06T20:52:54.961Z,100520.50
2023-05-06T20:55:24.649Z,100512.66
2023-05-06T20:57:53.177Z,100514.66
2023-05-06T21:00:25.477Z,100512.16
2023-05-06T21:02:53.511Z,100508.84
2023-05-06T21:05:22.571Z,100517.84
2023-05-06T21:07:53.695Z,100512.88
2023-05-06T21:10:24.959Z,100519.56
2023-05-06T21:12:53.295Z,100512.72
2023-05-06T21:15:25.095Z,100508.53
2023-05-06T21:17:53.381Z,100521.41
2023-05-06T21:20:23.088Z,100515.56
2023-05-06T21:22:51.772Z,100514.09
2023-05-06T21:25:20.148Z,100508.28
2023-05-06T21:27:51.084Z,100513.94
2023-05-06T21:30:19.749Z,100506.44
2023-05-06T21:32:50.229Z,100509.28
2023-05-06T21:35:18.576Z,100515.13
2023-05-06T21:37:49.660Z,100512.81
2023-05-06T21:40:19.165Z,100517.66
2023-05-06T21:42:47.503Z,100516.13
2023-05-06T21:45:18.299Z,100515.47
2023-05-06T21:47:46.422Z,100513.97
2023-05-06T21:50:16.187Z,100511.63
2023-05-06T21:52:44.526Z,100516.94
2023-05-06T21:55:13.689Z,100515.94
2023-05-06T21:57:45.336Z,100515.94
2023-05-06T22:00:15.919Z,100521.97
2023-05-06T22:02:44.707Z,100515.47
2023-05-06T22:05:13.527Z,100517.94
2023-05-06T22:07:43.229Z,100517.28
2023-05-06T22:10:11.896Z,100516.63
2023-05-06T22:12:42.132Z,100512.47
2023-05-06T22:15:14.888Z,100517.16
2023-05-06T22:17:43.050Z,100517.16
2023-05-06T22:20:12.040Z,100513.97
2023-05-06T22:22:44.184Z,100509.47
2023-05-06T22:25:12.730Z,100513.28
2023-05-06T22:27:43.575Z,100509.63
2023-05-06T22:30:16.901Z,100510.81
2023-05-06T22:32:45.534Z,100511.63
2023-05-06T22:35:13.699Z,100503.13
2023-05-06T22:37:43.182Z,100511.13
2023-05-06T22:40:13.876Z,100509.63
2023-05-06T22:42:44.912Z,100506.97
2023-05-06T22:45:14.119Z,100503.28
2023-05-06T22:47:42.418Z,100508.81
2023-05-06T22:50:12.134Z,100507.31
2023-05-06T22:52:40.378Z,100511.16
2023-05-06T22:55:11.040Z,100502.50
2023-05-06T22:57:42.253Z,100507.13
2023-05-06T23:00:12.711Z,100506.63
2023-05-06T23:02:44.453Z,100510.50
2023-05-06T23:05:16.153Z,100509.66
2023-05-06T23:07:46.839Z,100509.16
2023-05-06T23:10:16.951Z,100511.66
2023-05-06T23:12:47.307Z,100503.81
2023-05-06T23:15:17.083Z,100500.34
2023-05-06T23:17:48.479Z,100502.00
2023-05-06T23:20:17.244Z,100497.66
2023-05-06T23:22:46.869Z,100496.81
2023-05-06T23:25:17.227Z,100499.66
2023-05-06T23:27:45.703Z,100498.16
2023-05-06T23:30:18.066Z,100502.16
2023-05-06T23:32:46.758Z,100504.16
2023-05-06T23:35:14.726Z,100500.81
2023-05-06T23:37:43.283Z,100511.31
2023-05-06T23:40:14.179Z,100505.34
2023-05-06T23:42:43.905Z,100514.31
2023-05-06T23:45:15.305Z,100512.81
2023-05-06T23:47:44.848Z,100511.31
2023-05-06T23:50:15.448Z,100515.16
2023-05-06T23:52:44.956Z,100522.28
2023-05-06T23:55:15.543Z,100516.31
2023-05-06T23:57:46.692Z,100516.31
